Time;durP1;ratioP1;P1;durP2;ratioP2;P2;SDS_P1;SDS_P2;PMS_P1;PMS_P2;Temp;Humidity;BMP_temperature;BMP_pressure;BME280_temperature;BME280_humidity;BME280_pressure;Samples;Min_cycle;Max_cycle;Signal;HPM_P1;HPM_P2
2021/03/03 00:11:41;;;;;;;6.03;5.42;;;;;;;2.52;70.18;101160.84;1750823;76;38697;-92
2021/03/03 00:19:05;;;;;;;;;;;;;;;;;;;;;
2021/03/03 00:22:34;;;;;;;6.03;3.87;;;;;;;2.78;69.47;101176.44;1606851;86;21266;-93
2021/03/03 00:26:24;;;;;;;;;;;;;;;;;;;;;
2021/03/03 00:29:51;;;;;;;8.97;4.53;;;;;;;2.68;69.74;101183.37;1634753;83;21260;-92
2021/03/03 00:33:07;;;;;;;5.47;4.30;;;;;;;2.58;69.87;101185.00;1626485;84;21386;-92
2021/03/03 00:35:44;;;;;;;4.00;3.43;;;;;;;2.50;70.08;101189.04;1592700;88;21251;-91
2021/03/03 00:38:28;;;;;;;4.17;3.30;;;;;;;2.48;70.17;101190.13;1600550;87;21301;-92
2021/03/03 00:41:32;;;;;;;4.67;3.67;;;;;;;2.58;70.00;101187.63;1562074;89;21257;-93
2021/03/03 00:45:07;;;;;;;4.33;3.93;;;;;;;2.61;69.87;101185.61;1556645;88;21357;-93
2021/03/03 00:48:37;;;;;;;4.77;3.33;;;;;;;2.46;70.15;101179.70;1591785;87;21334;-90
2021/03/03 00:51:48;;;;;;;6.57;4.53;;;;;;;2.40;70.34;101178.86;1584820;88;21275;-93
2021/03/03 00:54:50;;;;;;;5.13;3.70;;;;;;;2.32;70.43;101187.32;1586185;89;21253;-94
2021/03/03 00:57:36;;;;;;;7.60;4.40;;;;;;;2.31;70.48;101178.22;1568079;83;21274;-92
2021/03/03 01:00:11;;;;;;;5.03;3.67;;;;;;;2.31;70.49;101184.80;1598981;86;21505;-92
2021/03/03 01:02:57;;;;;;;6.37;3.73;;;;;;;2.39;70.37;101185.55;1579051;87;21393;-91
2021/03/03 01:06:00;;;;;;;6.23;3.97;;;;;;;2.51;70.16;101185.95;1566761;88;21314;-91
2021/03/03 01:08:56;;;;;;;8.70;3.87;;;;;;;2.42;70.27;101185.33;1596832;88;21236;-93
2021/03/03 01:12:07;;;;;;;5.37;4.00;;;;;;;2.30;70.70;101204.19;1594028;84;21197;-94
2021/03/03 01:14:44;;;;;;;6.00;4.40;;;;;;;2.21;70.90;101203.55;1596635;88;21260;-92
2021/03/03 01:17:37;;;;;;;11.27;4.43;;;;;;;2.18;70.94;101205.91;1590269;84;21286;-90
2021/03/03 01:20:11;;;;;;;4.80;4.07;;;;;;;2.16;70.95;101214.39;1604886;84;21405;-90
2021/03/03 01:23:40;;;;;;;6.83;3.70;;;;;;;2.29;70.72;101209.07;1581238;82;21348;-93
2021/03/03 01:40:17;;;;;;;5.27;3.30;;;;;;;2.17;70.77;101212.14;1606949;84;21188;-92
2021/03/03 01:43:27;;;;;;;6.47;4.27;;;;;;;2.09;71.13;101219.72;1626470;83;21215;-93
2021/03/03 01:46:38;;;;;;;2.83;2.63;;;;;;;2.18;70.86;101220.86;1618688;83;21093;-93
2021/03/03 01:49:40;;;;;;;6.50;4.87;;;;;;;2.13;70.97;101223.84;1621581;84;21179;-93
2021/03/03 01:52:57;;;;;;;5.40;4.27;;;;;;;2.03;71.17;101226.27;1607883;85;21130;-92
2021/03/03 01:56:06;;;;;;;3.93;2.90;;;;;;;1.98;71.29;101231.05;1629168;82;21288;-93
2021/03/03 01:58:57;;;;;;;7.40;4.20;;;;;;;1.92;71.51;101229.70;1569933;86;21181;-93
2021/03/03 02:02:23;;;;;;;;;;;;;;;;;;;;;
2021/03/03 02:05:27;;;;;;;5.00;3.73;;;;;;;2.00;71.25;101223.87;1575608;86;21237;-94
2021/03/03 02:08:56;;;;;;;6.10;4.57;;;;;;;1.90;71.50;101237.31;1579083;89;21286;-93
2021/03/03 02:12:37;;;;;;;5.57;3.70;;;;;;;1.82;71.79;101240.97;1579274;86;21197;-92
2021/03/03 02:15:50;;;;;;;6.37;4.87;;;;;;;1.77;71.93;101240.45;1551176;90;21411;-93
2021/03/03 02:18:27;;;;;;;5.53;3.47;;;;;;;1.91;71.60;101245.09;1513679;92;21609;-95
2021/03/03 02:21:30;;;;;;;6.90;5.00;;;;;;;1.94;71.59;101249.28;1543990;90;21271;-91
2021/03/03 02:24:31;;;;;;;5.80;3.97;;;;;;;1.88;71.70;101256.30;1547440;86;22350;-91
2021/03/03 02:27:47;;;;;;;8.63;3.87;;;;;;;1.80;71.83;101255.53;1535061;90;21282;-95
2021/03/03 02:30:57;;;;;;;5.80;3.97;;;;;;;1.73;71.98;101267.42;1508476;89;21236;-89
2021/03/03 02:34:08;;;;;;;5.70;3.90;;;;;;;1.75;72.06;101255.88;1608741;85;21200;-92
2021/03/03 02:37:27;;;;;;;4.40;3.60;;;;;;;1.84;71.79;101270.62;1632259;84;21174;-92
2021/03/03 02:40:24;;;;;;;9.13;4.83;;;;;;;1.79;71.96;101281.47;1643283;85;21307;-93
2021/03/03 02:43:29;;;;;;;6.57;4.07;;;;;;;1.69;72.11;101285.20;1632630;86;21236;-95
2021/03/03 02:46:22;;;;;;;5.37;3.77;;;;;;;1.61;72.37;101287.53;1607103;86;21181;-94
2021/03/03 02:49:27;;;;;;;5.90;3.67;;;;;;;0.95;72.57;101198.84;1639268;84;21288;-91
2021/03/03 02:52:05;;;;;;;8.03;3.83;;;;;;;1.61;72.34;101299.36;1645181;86;21222;-91
2021/03/03 02:54:33;;;;;;;5.73;4.47;;;;;;;1.59;72.27;101301.25;1638351;85;21219;-90
2021/03/03 02:57:01;;;;;;;4.73;4.20;;;;;;;1.49;72.51;101306.31;1582556;86;21469;-91
2021/03/03 02:59:54;;;;;;;6.90;4.33;;;;;;;1.47;72.67;101312.59;1586115;88;21947;-92
2021/03/03 03:02:31;;;;;;;5.67;3.97;;;;;;;1.48;72.77;101311.67;1591774;85;21281;-89
2021/03/03 03:05:17;;;;;;;4.97;4.43;;;;;;;1.43;72.86;101312.45;1587427;86;21469;-92
2021/03/03 03:08:03;;;;;;;7.60;4.70;;;;;;;1.50;72.64;101320.28;1607696;84;21355;-90
2021/03/03 03:10:48;;;;;;;7.07;4.37;;;;;;;1.49;72.64;101315.51;1588949;84;21308;-88
2021/03/03 03:13:38;;;;;;;7.03;5.47;;;;;;;1.36;72.92;101318.13;1620345;84;21204;-94
2021/03/03 03:17:01;;;;;;;5.17;3.87;;;;;;;1.29;73.16;101322.11;1618588;85;21244;-94
2021/03/03 03:20:11;;;;;;;7.05;4.12;;;;;;;1.27;73.24;101321.37;1616195;84;21622;-95
2021/03/03 03:23:19;;;;;;;4.07;3.10;;;;;;;1.36;73.05;101332.58;1598890;87;21132;-92
2021/03/03 03:26:23;;;;;;;6.00;4.93;;;;;;;1.30;73.25;101330.82;1614792;85;21333;-93
2021/03/03 03:29:34;;;;;;;6.50;3.80;;;;;;;1.17;73.48;101336.09;1633518;86;21309;-93
2021/03/03 03:32:51;;;;;;;6.90;4.53;;;;;;;1.11;73.67;101337.34;1613948;84;21176;-93
2021/03/03 03:35:52;;;;;;;6.33;4.43;;;;;;;1.13;73.55;101340.70;1609834;84;21283;-94
2021/03/03 03:39:10;;;;;;;9.90;4.60;;;;;;;1.09;73.51;101340.54;1591285;88;21621;-93
2021/03/03 03:42:22;;;;;;;7.63;4.73;;;;;;;1.07;73.46;101338.94;1643315;83;21190;-93
2021/03/03 03:45:06;;;;;;;5.87;4.27;;;;;;;1.01;73.65;101337.56;1632774;85;21046;-94
2021/03/03 03:47:58;;;;;;;6.07;4.03;;;;;;;1.14;73.40;101334.48;1592380;87;21167;-93
2021/03/03 03:51:10;;;;;;;5.37;3.98;;;;;;;1.21;73.34;101330.98;1640136;84;21354;-93
2021/03/03 03:54:19;;;;;;;4.40;3.87;;;;;;;1.17;73.26;101328.20;1585559;88;21212;-92
2021/03/03 03:57:14;;;;;;;6.83;4.70;;;;;;;1.08;73.28;101331.45;1591988;85;21105;-94
2021/03/03 04:00:34;;;;;;;5.60;5.03;;;;;;;1.04;73.43;101340.00;1610895;84;21072;-94
2021/03/03 04:03:47;;;;;;;5.73;4.17;;;;;;;1.22;73.01;101337.08;1641407;85;21160;-95
2021/03/03 04:07:05;;;;;;;5.97;4.70;;;;;;;1.19;73.15;101336.82;1642172;84;21283;-94
2021/03/03 04:10:29;;;;;;;5.73;4.67;;;;;;;1.15;73.22;101344.06;1649660;84;21207;-93
2021/03/03 04:13:31;;;;;;;5.80;5.17;;;;;;;1.05;73.09;101349.54;1649258;84;21231;-95
2021/03/03 04:16:46;;;;;;;6.53;4.80;;;;;;;0.97;72.95;101345.28;1630255;84;21179;-94
2021/03/03 04:19:44;;;;;;;8.07;4.90;;;;;;;0.86;73.34;101352.54;1639331;85;21365;-93
2021/03/03 04:22:19;;;;;;;6.87;4.60;;;;;;;0.90;73.30;101343.52;1628336;83;21231;-93
2021/03/03 04:24:54;;;;;;;6.50;4.80;;;;;;;0.89;73.49;101349.72;1645913;84;21129;-92
2021/03/03 04:27:46;;;;;;;6.30;5.20;;;;;;;1.02;73.20;101352.84;1637570;85;21153;-94
2021/03/03 04:30:56;;;;;;;7.60;5.47;;;;;;;1.05;73.04;101351.33;1673535;82;21176;-94
2021/03/03 04:34:11;;;;;;;7.47;4.70;;;;;;;0.93;73.34;101358.24;1663612;83;21163;-93
2021/03/03 04:37:38;;;;;;;7.90;4.97;;;;;;;0.86;73.36;101359.58;1665344;82;21195;-93
2021/03/03 04:41:08;;;;;;;10.13;5.97;;;;;;;0.91;73.27;101363.59;1641771;85;21169;-91
2021/03/03 04:47:36;;;;;;;7.07;5.57;;;;;;;0.95;73.30;101365.06;1639043;86;21317;-90
2021/03/03 04:50:13;;;;;;;8.23;6.30;;;;;;;0.95;73.38;101374.73;1623688;86;21195;-94
2021/03/03 04:56:47;;;;;;;7.03;5.70;;;;;;;1.21;73.04;101376.12;1630375;83;21095;-95
2021/03/03 05:00:02;;;;;;;9.23;6.90;;;;;;;1.53;72.43;101382.66;1650546;83;21229;-94
2021/03/03 05:03:18;;;;;;;9.50;6.57;;;;;;;1.92;71.91;101395.80;1620201;84;21272;-94
2021/03/03 05:06:49;;;;;;;7.03;5.57;;;;;;;2.47;69.81;101401.14;1642346;83;21172;-94
2021/03/03 05:16:30;;;;;;;8.10;5.83;;;;;;;4.14;63.50;101390.03;1626858;85;21215;-94
2021/03/03 05:19:32;;;;;;;7.13;6.27;;;;;;;4.59;62.32;101397.89;1606386;86;21315;-93
2021/03/03 05:22:47;;;;;;;7.93;5.73;;;;;;;4.83;60.80;101402.51;1603473;85;21015;-91
2021/03/03 05:26:10;;;;;;;8.63;6.40;;;;;;;5.06;59.53;101396.66;1640943;85;21166;-93
2021/03/03 05:29:27;;;;;;;7.50;6.77;;;;;;;5.50;59.81;101411.59;1643032;85;21134;-92
2021/03/03 05:32:55;;;;;;;5.87;4.77;;;;;;;6.14;57.24;101411.91;1624578;84;21240;-94
2021/03/03 05:59:56;;;;;;;9.33;5.67;;;;;;;10.00;45.73;101418.42;1650072;85;21227;-87
2021/03/03 06:02:54;;;;;;;5.92;5.28;;;;;;;9.49;45.32;101365.89;1628430;87;21148;-94
2021/03/03 06:06:10;;;;;;;7.37;4.53;;;;;;;9.78;45.88;101427.80;1654536;83;21259;-92
2021/03/03 06:09:12;;;;;;;5.93;4.57;;;;;;;9.86;45.48;101424.67;1650375;82;21322;-91
2021/03/03 06:28:56;;;;;;;4.50;4.10;;;;;;;11.38;42.06;101430.52;1655991;83;21244;-90
2021/03/03 06:31:51;;;;;;;6.57;4.70;;;;;;;11.32;42.22;101437.02;1642044;80;21234;-88
2021/03/03 06:35:13;;;;;;;6.97;6.23;;;;;;;10.16;43.26;101427.02;1793916;78;28226;-91
2021/03/03 06:38:16;;;;;;;6.47;5.27;;;;;;;8.82;45.88;101425.31;1752930;80;21219;-89
2021/03/03 06:41:08;;;;;;;5.23;4.40;;;;;;;7.66;48.82;101431.91;1759062;81;21165;-86
2021/03/03 06:43:36;;;;;;;6.37;4.23;;;;;;;6.90;50.69;101438.76;1664319;82;21246;-90
2021/03/03 06:46:19;;;;;;;8.53;4.83;;;;;;;6.37;52.49;101431.94;1621395;84;21242;-87
2021/03/03 06:48:47;;;;;;;8.03;4.17;;;;;;;5.87;53.76;101438.42;1604325;86;21211;-90
2021/03/03 06:51:36;;;;;;;6.77;3.83;;;;;;;5.42;55.36;101442.16;1643939;84;21138;-92
2021/03/03 06:54:23;;;;;;;3.87;3.57;;;;;;;5.07;56.54;101438.48;1653122;84;21216;-90
2021/03/03 06:57:14;;;;;;;6.13;4.87;;;;;;;4.81;57.41;101442.74;1646782;85;21116;-91
2021/03/03 06:59:48;;;;;;;5.80;4.30;;;;;;;4.65;57.58;101437.00;1661264;85;21305;-92
2021/03/03 07:03:04;;;;;;;6.00;4.43;;;;;;;4.57;58.17;101444.71;1623777;86;21193;-91
2021/03/03 07:05:56;;;;;;;5.70;3.37;;;;;;;4.49;58.38;101445.32;1640080;86;21150;-91
2021/03/03 07:09:05;;;;;;;6.97;3.53;;;;;;;4.35;59.32;101445.10;1609580;87;21724;-90
2021/03/03 07:11:43;;;;;;;5.90;3.73;;;;;;;4.34;59.34;101452.64;1627654;87;21203;-89
2021/03/03 07:15:07;;;;;;;7.53;2.90;;;;;;;4.28;59.44;101447.86;1617279;85;21667;-90
2021/03/03 07:18:36;;;;;;;5.60;3.23;;;;;;;4.21;59.60;101447.48;1661937;83;21194;-86
2021/03/03 07:21:51;;;;;;;6.90;3.63;;;;;;;4.25;59.37;101458.16;1636583;83;21461;-90
2021/03/03 07:24:43;;;;;;;4.07;2.93;;;;;;;4.20;59.63;101452.88;1626552;84;21393;-90
2021/03/03 07:27:50;;;;;;;7.97;3.43;;;;;;;4.19;59.83;101453.84;1585862;88;21206;-89
2021/03/03 07:30:45;;;;;;;6.27;3.60;;;;;;;4.21;59.60;101458.04;1617165;86;21220;-90
2021/03/03 07:33:21;;;;;;;6.80;4.63;;;;;;;4.27;59.80;101455.40;1655800;84;21341;-89
2021/03/03 07:36:42;;;;;;;5.83;3.70;;;;;;;4.33;59.83;101448.80;1635321;85;21163;-90
2021/03/03 07:39:32;;;;;;;8.15;3.62;;;;;;;4.35;59.50;101446.42;1705454;82;21314;-89
2021/03/03 07:42:28;;;;;;;4.83;3.70;;;;;;;4.39;59.09;101455.77;1652990;83;21770;-88
2021/03/03 07:45:08;;;;;;;5.67;3.07;;;;;;;4.43;59.08;101445.81;1646320;84;21338;-88
2021/03/03 07:47:39;;;;;;;4.67;3.13;;;;;;;4.55;58.87;101444.00;1662962;84;21234;-88
2021/03/03 07:50:31;;;;;;;6.80;3.33;;;;;;;4.65;58.64;101447.56;1663621;83;21226;-90
2021/03/03 07:53:04;;;;;;;3.30;2.90;;;;;;;4.71;58.22;101445.78;1670728;83;21430;-89
2021/03/03 07:55:33;;;;;;;4.80;3.23;;;;;;;4.68;58.15;101448.66;1678052;83;21251;-88
2021/03/03 07:58:01;;;;;;;5.47;3.30;;;;;;;4.73;58.15;101453.09;1681791;83;21300;-86
2021/03/03 08:00:33;;;;;;;6.37;4.50;;;;;;;4.78;58.16;101450.07;1665327;83;21124;-87
2021/03/03 08:03:02;;;;;;;4.37;3.67;;;;;;;4.79;58.05;101451.77;1665671;84;21224;-87
2021/03/03 08:05:41;;;;;;;3.93;2.97;;;;;;;4.81;58.13;101445.38;1630307;86;21212;-87
2021/03/03 08:08:24;;;;;;;5.80;3.53;;;;;;;4.82;57.82;101447.53;1668465;83;21220;-89
2021/03/03 08:11:11;;;;;;;5.40;3.43;;;;;;;4.77;57.66;101451.05;1680690;82;21223;-87
2021/03/03 08:14:02;;;;;;;4.07;3.23;;;;;;;4.78;58.10;101441.66;1662368;83;21196;-87
2021/03/03 08:16:29;;;;;;;6.47;3.77;;;;;;;4.81;58.02;101441.42;1678977;83;21156;-88
2021/03/03 08:19:04;;;;;;;7.97;4.87;;;;;;;4.82;58.10;101445.76;1638428;84;21291;-87
2021/03/03 08:21:36;;;;;;;5.40;2.97;;;;;;;4.80;58.06;101451.65;1611301;85;21463;-87
2021/03/03 08:24:44;;;;;;;8.37;4.23;;;;;;;4.83;58.11;101447.91;1549782;86;22400;-87
2021/03/03 08:27:34;;;;;;;3.77;2.90;;;;;;;4.86;57.99;101443.71;1601061;86;21234;-86
2021/03/03 08:30:15;;;;;;;6.93;3.90;;;;;;;4.92;57.84;101435.77;1584883;88;21310;-87
2021/03/03 08:32:42;;;;;;;5.70;3.53;;;;;;;4.99;57.64;101439.56;1616988;87;21221;-86
2021/03/03 08:35:10;;;;;;;4.63;3.70;;;;;;;5.03;57.59;101441.85;1600384;86;21084;-83
2021/03/03 08:37:39;;;;;;;3.97;3.27;;;;;;;4.82;57.34;101389.42;1617552;86;21371;-87
2021/03/03 08:40:29;;;;;;;6.63;3.97;;;;;;;5.22;57.39;101446.47;1621452;86;21545;-89
2021/03/03 08:43:49;;;;;;;5.10;3.27;;;;;;;5.30;57.29;101441.04;1618624;83;21500;-89
2021/03/03 08:47:16;;;;;;;4.13;3.73;;;;;;;5.30;57.13;101437.07;1567697;88;21815;-89
2021/03/03 08:50:36;;;;;;;6.97;4.90;;;;;;;5.31;56.63;101435.59;1593185;85;21287;-87
2021/03/03 08:53:34;;;;;;;5.90;5.10;;;;;;;5.24;56.75;101435.28;1660813;84;21337;-91
2021/03/03 09:07:05;;;;;;;10.53;6.63;;;;;;;5.28;57.57;101436.36;1644385;82;21184;-88
2021/03/03 09:10:15;;;;;;;10.27;7.07;;;;;;;5.37;57.87;101436.89;1608362;85;21232;-88
2021/03/03 09:12:45;;;;;;;12.40;7.03;;;;;;;5.54;57.32;101445.61;1569747;87;21366;-91
2021/03/03 09:15:22;;;;;;;7.73;6.70;;;;;;;5.60;56.75;101442.93;1637810;85;21244;-88
2021/03/03 09:17:54;;;;;;;7.53;6.47;;;;;;;5.59;56.84;101451.33;1596945;88;21574;-86
2021/03/03 09:20:23;;;;;;;10.17;6.63;;;;;;;5.63;56.44;101444.84;1584039;87;21254;-86
2021/03/03 09:23:03;;;;;;;8.40;7.10;;;;;;;5.66;56.59;101449.85;1549010;86;21211;-91
2021/03/03 09:25:41;;;;;;;12.70;7.90;;;;;;;5.72;56.43;101455.59;1610060;82;21261;-89
2021/03/03 09:28:10;;;;;;;8.40;7.13;;;;;;;5.75;56.39;101454.03;1581722;88;21190;-90
2021/03/03 09:31:40;;;;;;;8.27;6.77;;;;;;;5.76;56.36;101447.75;1585949;88;21747;-88
2021/03/03 09:34:10;;;;;;;8.23;6.67;;;;;;;5.83;56.23;101451.56;1601046;85;21320;-88
2021/03/03 09:37:03;;;;;;;14.97;6.53;;;;;;;5.92;55.70;101452.11;1612170;87;21181;-88
2021/03/03 09:39:36;;;;;;;9.83;6.80;;;;;;;5.95;55.52;101442.63;1624482;87;21219;-88
2021/03/03 09:42:38;;;;;;;9.17;5.83;;;;;;;5.98;55.51;101446.81;1630467;83;21177;-90
2021/03/03 09:45:52;;;;;;;6.83;5.27;;;;;;;6.04;55.45;101443.63;1628679;85;21250;-90
2021/03/03 09:48:59;;;;;;;6.40;4.20;;;;;;;6.15;55.12;101442.72;1627608;86;21155;-90
2021/03/03 09:52:09;;;;;;;11.07;4.77;;;;;;;6.28;54.42;101447.30;1620803;84;21221;-91
2021/03/03 09:55:32;;;;;;;7.60;5.37;;;;;;;6.35;53.77;101441.00;1612994;86;21301;-88
2021/03/03 09:58:15;;;;;;;7.07;4.80;;;;;;;6.33;53.56;101438.48;1588452;89;21203;-89
2021/03/03 10:01:33;;;;;;;5.97;4.30;;;;;;;6.36;53.46;101431.57;1562470;88;21344;-87
2021/03/03 10:04:27;;;;;;;6.03;4.33;;;;;;;6.43;53.04;101425.27;1517797;92;21418;-88
2021/03/03 10:07:10;;;;;;;7.77;5.13;;;;;;;6.49;52.82;101422.56;1525930;91;21218;-90
2021/03/03 10:10:46;;;;;;;10.67;6.80;;;;;;;6.51;52.84;101418.80;1487296;92;21221;-88
2021/03/03 10:14:10;;;;;;;8.67;6.77;;;;;;;6.52;53.12;101415.69;1542648;89;21280;-87
2021/03/03 10:17:46;;;;;;;;;;;;;;;;;;;;;
2021/03/03 10:20:52;;;;;;;7.83;6.20;;;;;;;6.76;52.30;101403.37;1834571;76;22442;-87
2021/03/03 10:23:30;;;;;;;8.60;6.40;;;;;;;6.68;52.80;101413.33;1769406;79;22263;-90
2021/03/03 10:26:24;;;;;;;11.50;5.33;;;;;;;6.68;52.54;101407.20;1696495;80;21315;-86
2021/03/03 10:29:01;;;;;;;6.97;5.30;;;;;;;6.68;52.98;101401.41;1684866;84;21204;-87
2021/03/03 10:31:47;;;;;;;7.53;5.23;;;;;;;6.72;52.33;101405.45;1676624;84;21148;-87
2021/03/03 10:34:14;;;;;;;9.03;5.30;;;;;;;6.74;52.52;101395.58;1691326;83;21117;-86
2021/03/03 10:36:43;;;;;;;7.47;5.37;;;;;;;6.79;52.29;101392.02;1702713;83;21159;-87
2021/03/03 10:39:10;;;;;;;6.03;5.40;;;;;;;6.80;52.13;101384.42;1717360;81;21142;-86
2021/03/03 10:41:43;;;;;;;7.27;5.13;;;;;;;6.82;51.67;101389.59;1695932;83;21190;-87
2021/03/03 10:44:10;;;;;;;5.70;4.20;;;;;;;6.81;51.83;101398.00;1722247;82;21245;-88
2021/03/03 10:46:45;;;;;;;8.67;4.87;;;;;;;6.83;51.84;101393.41;1710355;82;21159;-86
2021/03/03 10:49:19;;;;;;;4.43;3.47;;;;;;;6.82;51.86;101387.77;1709421;82;21177;-84
2021/03/03 10:51:53;;;;;;;6.83;3.60;;;;;;;6.90;52.13;101380.95;1712891;82;21193;-90
2021/03/03 10:54:33;;;;;;;4.57;3.47;;;;;;;6.96;51.01;101382.53;1689018;82;21194;-85
2021/03/03 11:00:05;;;;;;;7.13;3.47;;;;;;;7.03;50.97;101381.51;1798668;78;23121;-84
2021/03/03 11:02:33;;;;;;;3.93;3.50;;;;;;;7.02;50.57;101381.14;1721325;81;21183;-86
2021/03/03 11:05:01;;;;;;;5.33;3.73;;;;;;;7.05;50.54;101370.77;1696311;83;21249;-84
2021/03/03 11:07:28;;;;;;;5.53;3.60;;;;;;;7.03;50.88;101376.20;1608608;85;21176;-85
2021/03/03 11:09:55;;;;;;;5.83;4.33;;;;;;;6.99;50.90;101365.04;1713643;79;21774;-88
2021/03/03 11:12:27;;;;;;;4.63;3.37;;;;;;;6.91;51.05;101370.21;1661568;84;21194;-86
2021/03/03 11:15:03;;;;;;;4.50;3.10;;;;;;;6.88;51.08;101363.86;1665605;84;21200;-86
2021/03/03 11:17:30;;;;;;;4.20;3.23;;;;;;;6.89;50.62;101363.36;1670189;84;21316;-85
2021/03/03 11:19:58;;;;;;;3.43;2.37;;;;;;;6.89;50.69;101365.52;1638513;86;21382;-86
2021/03/03 11:22:26;;;;;;;3.23;2.40;;;;;;;6.90;50.75;101368.52;1655238;84;21250;-87
2021/03/03 14:42:08;;;;;;;;;;;;;;;;;;;;;
2021/03/03 14:58:32;;;;;;;2.90;1.93;;;;;;;6.16;47.11;101203.47;1615822;84;21261;-93
2021/03/03 16:27:27;;;;;;;7.13;5.60;;;;;;;4.81;53.01;101187.00;1664460;79;21189;-90
2021/03/03 16:34:24;;;;;;;5.10;4.57;;;;;;;4.76;53.16;101188.70;1657528;82;21174;-90
2021/03/03 16:40:06;;;;;;;9.07;4.83;;;;;;;4.68;53.51;101188.52;1714400;80;21254;-89
2021/03/03 16:42:35;;;;;;;7.47;5.60;;;;;;;4.65;53.58;101186.13;1680604;81;21431;-89
2021/03/03 16:45:11;;;;;;;8.00;5.30;;;;;;;4.62;53.59;101181.95;1686515;80;21278;-88
2021/03/03 16:47:38;;;;;;;8.47;6.10;;;;;;;4.60;53.83;101183.05;1684521;83;21379;-86
2021/03/03 16:50:09;;;;;;;8.93;7.13;;;;;;;4.56;53.90;101178.97;1675558;82;21223;-88
2021/03/03 16:52:42;;;;;;;12.10;8.20;;;;;;;4.54;54.19;101179.13;1677069;81;21265;-87
2021/03/03 16:55:46;;;;;;;8.67;7.17;;;;;;;4.52;54.27;101173.59;1653502;84;21067;-87
2021/03/03 16:58:17;;;;;;;7.33;6.57;;;;;;;4.48;54.57;101173.88;1684618;82;21232;-86
2021/03/03 17:00:56;;;;;;;10.65;7.20;;;;;;;4.42;54.51;101174.36;1668322;82;21085;-88
2021/03/03 17:03:35;;;;;;;11.83;7.43;;;;;;;4.39;54.62;101172.45;1680355;82;21152;-85
2021/03/03 17:06:26;;;;;;;9.43;7.13;;;;;;;4.35;54.73;101171.91;1620644;85;21220;-88
2021/03/03 17:09:22;;;;;;;13.73;7.63;;;;;;;4.31;54.93;101169.14;1621750;86;21182;-86
2021/03/03 17:12:23;;;;;;;15.57;9.53;;;;;;;4.29;55.09;101173.70;1594726;87;21142;-86
2021/03/03 17:15:33;;;;;;;10.60;8.40;;;;;;;4.27;55.17;101171.68;1598995;86;21236;-86
2021/03/03 17:18:27;;;;;;;10.23;8.57;;;;;;;4.24;55.23;101165.36;1594806;87;21266;-87
2021/03/03 17:21:46;;;;;;;12.90;8.90;;;;;;;4.21;55.32;101170.38;1591712;86;21169;-88
2021/03/03 17:28:22;;;;;;;16.27;9.97;;;;;;;4.15;55.50;101158.20;1557210;86;21287;-89
2021/03/03 17:31:49;;;;;;;10.67;7.27;;;;;;;4.13;55.77;101153.53;1650293;85;21230;-89
2021/03/03 17:35:11;;;;;;;12.23;7.67;;;;;;;4.10;55.90;101152.79;1664771;84;21468;-89
2021/03/03 17:38:24;;;;;;;14.40;7.80;;;;;;;4.03;56.05;101142.41;1632657;85;21178;-90
2021/03/03 17:41:32;;;;;;;13.90;8.00;;;;;;;4.03;56.19;101144.19;1647176;85;21162;-88
2021/03/03 17:44:42;;;;;;;12.20;7.50;;;;;;;3.99;56.18;101139.64;1634456;85;21215;-89
2021/03/03 17:47:37;;;;;;;10.83;8.57;;;;;;;3.97;56.31;101136.30;1592009;88;21275;-88
2021/03/03 17:50:37;;;;;;;11.43;7.60;;;;;;;3.96;56.36;101144.36;1653524;85;21210;-90
2021/03/03 17:55:34;;;;;;;10.43;7.83;;;;;;;3.95;56.80;101146.63;1828080;76;22868;-88
2021/03/03 17:58:27;;;;;;;11.57;8.37;;;;;;;3.89;57.09;101136.92;1804808;79;21206;-89
2021/03/03 18:01:01;;;;;;;15.57;8.50;;;;;;;3.86;57.22;101140.29;1785564;78;21142;-89
2021/03/03 18:03:53;;;;;;;11.20;7.97;;;;;;;3.78;57.87;101139.59;1778272;79;21179;-91
2021/03/03 18:06:55;;;;;;;13.63;8.90;;;;;;;3.72;57.94;101137.47;1708091;81;21322;-87
2021/03/03 18:09:46;;;;;;;12.00;7.70;;;;;;;3.65;58.09;101129.20;1746883;77;21530;-91
2021/03/03 18:19:17;;;;;;;10.60;8.80;;;;;;;3.52;59.45;101121.92;1634942;85;21301;-91
2021/03/03 18:22:53;;;;;;;12.27;9.70;;;;;;;3.49;59.89;101126.14;1621090;86;21212;-91
2021/03/03 18:25:34;;;;;;;11.03;8.10;;;;;;;3.45;60.02;101118.96;1594427;87;21226;-89
2021/03/03 18:28:22;;;;;;;9.80;8.27;;;;;;;3.42;60.17;101113.92;1587388;87;21180;-87
2021/03/03 18:30:53;;;;;;;12.07;9.13;;;;;;;3.38;60.96;101114.30;1574867;89;21154;-89
2021/03/03 18:34:05;;;;;;;12.30;8.90;;;;;;;3.33;60.86;101101.48;1620028;86;21065;-89
2021/03/03 18:37:33;;;;;;;16.97;8.50;;;;;;;3.32;61.06;101098.50;1588093;84;21215;-89
2021/03/03 18:40:47;;;;;;;11.85;7.87;;;;;;;3.31;61.13;101100.77;1595683;82;21363;-91
2021/03/03 19:30:26;;;;;;;11.73;9.53;;;;;;;2.96;62.92;101035.94;1606913;85;21161;-86
2021/03/03 19:33:22;;;;;;;13.90;11.50;;;;;;;2.92;62.86;101037.97;1592208;85;21673;-89
2021/03/03 19:36:13;;;;;;;13.70;10.03;;;;;;;2.91;62.81;101034.97;1649427;83;21441;-90
2021/03/03 19:39:13;;;;;;;13.43;10.07;;;;;;;2.92;62.78;101035.34;1667252;85;21166;-93
2021/03/03 19:42:48;;;;;;;14.80;11.27;;;;;;;2.86;62.88;101027.07;1666085;85;21216;-92
2021/03/03 19:53:36;;;;;;;13.80;10.70;;;;;;;2.79;62.67;101006.13;1623621;84;21145;-90
2021/03/03 19:56:25;;;;;;;15.30;11.23;;;;;;;2.77;62.68;101006.73;1627793;83;21208;-89
2021/03/03 19:58:58;;;;;;;14.70;10.60;;;;;;;2.74;62.68;101005.19;1667255;83;21156;-90
2021/03/03 20:01:47;;;;;;;13.10;10.80;;;;;;;2.75;62.55;101004.24;1654680;84;21074;-94
2021/03/03 20:04:58;;;;;;;13.47;10.77;;;;;;;2.75;62.58;100995.48;1663392;84;21198;-90
2021/03/03 20:08:16;;;;;;;13.47;9.27;;;;;;;2.75;62.45;100996.34;1657604;83;21153;-85
2021/03/03 20:11:05;;;;;;;11.30;9.10;;;;;;;2.74;62.41;100998.61;1670526;84;21279;-90
2021/03/03 20:14:04;;;;;;;10.77;8.50;;;;;;;2.72;62.36;100988.68;1642978;84;21211;-88
2021/03/03 20:16:39;;;;;;;15.77;9.30;;;;;;;2.75;62.37;100990.22;1653194;85;21218;-88
2021/03/03 20:26:12;;;;;;;13.43;9.97;;;;;;;2.71;62.29;100985.22;1707044;81;21112;-91
2021/03/03 20:30:05;;;;;;;14.07;9.30;;;;;;;2.71;62.28;100986.53;1705032;81;21116;-91
2021/03/03 20:33:22;;;;;;;;;;;;;;;;;;;;;
2021/03/03 20:36:31;;;;;;;13.03;8.40;;;;;;;2.69;62.50;100984.96;1672173;80;21167;-90
2021/03/03 20:49:52;;;;;;;16.97;13.40;;;;;;;2.58;62.29;100967.41;1691810;80;21133;-92
2021/03/03 20:53:07;;;;;;;14.93;10.53;;;;;;;2.41;62.08;100939.78;1745920;80;21227;-91
2021/03/03 21:27:29;;;;;;;25.47;14.83;;;;;;;2.50;61.67;100908.77;1719354;80;21222;-94
2021/03/03 21:31:10;;;;;;;19.83;14.87;;;;;;;2.51;61.74;100912.27;1710276;81;21322;-91
2021/03/03 21:34:23;;;;;;;25.60;16.97;;;;;;;2.46;61.89;100911.30;1664356;80;21164;-92
2021/03/03 21:37:15;;;;;;;17.40;13.93;;;;;;;2.46;61.87;100908.66;1674481;83;21209;-92
2021/03/03 21:40:44;;;;;;;22.70;16.13;;;;;;;2.42;62.05;100899.84;1654092;85;21135;-91
2021/03/03 21:49:35;;;;;;;21.13;14.53;;;;;;;2.32;62.38;100887.89;1691063;80;20321;-91
2021/03/03 21:53:09;;;;;;;22.53;13.40;;;;;;;2.30;62.66;100872.22;1800946;77;22994;-91
2021/03/03 21:55:44;;;;;;;23.80;14.87;;;;;;;2.23;62.85;100874.14;1744677;80;21117;-92
2021/03/03 21:58:53;;;;;;;18.98;13.53;;;;;;;2.20;62.92;100865.17;1703597;81;21115;-91
2021/03/03 22:05:05;;;;;;;;;;;;;;;2.17;63.55;100860.14;1707145;82;21148;-93
2021/03/03 22:11:42;;;;;;;19.93;14.00;;;;;;;2.06;64.13;100848.69;1625386;86;21191;-92
2021/03/03 22:18:08;;;;;;;19.13;14.73;;;;;;;2.05;64.44;100844.38;1660356;82;21149;-88
2021/03/03 22:21:18;;;;;;;21.53;13.63;;;;;;;2.05;64.65;100840.91;1516523;91;21238;-91
2021/03/03 22:24:04;;;;;;;22.90;13.77;;;;;;;1.93;64.84;100830.41;1514344;91;21150;-91
2021/03/03 22:27:00;;;;;;;19.25;13.30;;;;;;;1.90;65.08;100822.78;1606369;83;21118;-88
2021/03/03 22:30:15;;;;;;;17.07;13.80;;;;;;;1.85;65.24;100825.41;1652114;85;21199;-89
2021/03/03 22:32:47;;;;;;;16.67;12.70;;;;;;;1.81;65.63;100817.38;1649091;84;21205;-91
2021/03/03 22:35:18;;;;;;;19.83;15.17;;;;;;;1.81;65.80;100818.23;1635901;86;21205;-89
2021/03/03 22:37:50;;;;;;;19.50;15.00;;;;;;;1.47;65.83;100747.28;1603479;87;21256;-90
2021/03/03 22:40:22;;;;;;;19.77;14.90;;;;;;;1.93;65.98;100818.57;1631469;85;21393;-90
2021/03/03 22:42:49;;;;;;;19.90;15.77;;;;;;;1.86;66.38;100817.38;1687209;83;21539;-91
2021/03/03 22:45:17;;;;;;;19.83;15.97;;;;;;;1.77;66.61;100810.69;1698931;82;21156;-90